createdAt,value
2023-06-15T00:00:58.469Z,20.40
2023-06-15T00:03:25.694Z,20.30
2023-06-15T00:05:53.603Z,20.20
2023-06-15T00:08:20.833Z,20.30
2023-06-15T00:10:48.519Z,20.40
2023-06-15T00:13:16.497Z,20.40
2023-06-15T00:15:43.393Z,20.30
2023-06-15T00:18:10.401Z,20.30
2023-06-15T00:20:38.688Z,20.30
2023-06-15T00:23:06.857Z,20.20
2023-06-15T00:25:34.442Z,20.20
2023-06-15T00:28:02.736Z,20.10
2023-06-15T00:30:29.528Z,20.10
2023-06-15T00:32:56.541Z,20.10
2023-06-15T00:35:23.667Z,20.00
2023-06-15T00:37:50.653Z,20.00
2023-06-15T00:40:17.725Z,20.00
2023-06-15T00:42:46.207Z,20.00
2023-06-15T01:42:33.171Z,19.80
2023-06-15T01:45:00.733Z,19.20
2023-06-15T01:47:28.355Z,19.20
2023-06-15T01:49:56.299Z,19.20
2023-06-15T01:52:23.200Z,19.20
2023-06-15T01:54:50.169Z,19.10
2023-06-15T01:57:21.201Z,19.00
2023-06-15T01:59:48.138Z,19.10
2023-06-15T02:02:15.151Z,19.20
2023-06-15T02:04:41.987Z,19.10
2023-06-15T02:07:08.950Z,19.10
2023-06-15T02:09:35.748Z,19.10
2023-06-15T02:12:02.582Z,19.00
2023-06-15T02:14:29.428Z,19.00
2023-06-15T02:16:57.757Z,19.00
2023-06-15T06:38:19.797Z,18.80
2023-06-15T06:40:46.700Z,20.20
2023-06-15T06:43:13.587Z,20.20
2023-06-15T06:45:40.728Z,20.30
2023-06-15T06:48:07.582Z,20.40
2023-06-15T06:50:34.540Z,20.40
2023-06-15T06:53:01.600Z,20.40
2023-06-15T06:55:28.382Z,20.60
2023-06-15T06:57:55.259Z,20.60
2023-06-15T07:00:22.702Z,20.70
2023-06-15T07:02:49.754Z,20.80
2023-06-15T07:05:17.058Z,20.90
2023-06-15T07:07:44.134Z,20.90
2023-06-15T07:10:11.890Z,21.00
2023-06-15T07:15:32.497Z,21.10
2023-06-15T07:17:59.923Z,21.10
2023-06-15T07:20:26.842Z,21.20
2023-06-15T07:22:53.766Z,21.30
2023-06-15T07:25:20.701Z,21.50
2023-06-15T07:27:47.993Z,21.50
2023-06-15T07:30:15.934Z,21.50
2023-06-15T07:32:43.032Z,21.60
2023-06-15T07:35:10.130Z,21.60
2023-06-15T07:37:36.973Z,21.60
2023-06-15T07:40:04.097Z,21.70
2023-06-15T07:42:30.943Z,21.70
2023-06-15T07:44:57.768Z,21.80
2023-06-15T07:47:24.627Z,21.90
2023-06-15T07:49:51.473Z,21.90
2023-06-15T07:52:20.795Z,21.90
2023-06-15T07:54:49.867Z,22.00
2023-06-15T07:57:16.671Z,22.20
2023-06-15T07:59:43.540Z,22.20
2023-06-15T08:02:10.486Z,22.20
2023-06-15T08:04:37.404Z,22.20
2023-06-15T08:07:04.503Z,22.40
2023-06-15T08:09:31.349Z,22.50
2023-06-15T08:11:58.140Z,22.50
2023-06-15T08:16:52.422Z,22.70
2023-06-15T08:19:19.452Z,22.80
2023-06-15T08:21:46.424Z,22.90
2023-06-15T08:24:13.793Z,22.80
2023-06-15T08:26:41.478Z,22.80
2023-06-15T08:29:22.531Z,22.90
2023-06-15T08:31:50.074Z,23.10
2023-06-15T08:34:18.449Z,23.20
2023-06-15T08:36:45.315Z,23.20
2023-06-15T08:39:12.137Z,23.30
2023-06-15T08:41:39.587Z,23.40
2023-06-15T08:44:06.905Z,23.40
2023-06-15T08:46:33.928Z,23.30
2023-06-15T08:49:03.201Z,23.30
2023-06-15T08:51:30.532Z,23.50
2023-06-15T08:53:57.479Z,23.60
2023-06-15T08:56:24.735Z,23.60
2023-06-15T08:58:51.560Z,23.60
2023-06-15T09:01:23.617Z,23.70
2023-06-15T09:03:55.274Z,23.80
2023-06-15T09:06:23.821Z,23.90
2023-06-15T09:08:52.796Z,23.80
2023-06-15T09:11:19.907Z,23.70
2023-06-15T09:13:54.257Z,23.80
2023-06-15T09:16:33.572Z,24.10
2023-06-15T09:19:01.475Z,24.40
2023-06-15T09:21:30.194Z,24.50
2023-06-15T09:24:08.582Z,24.50
2023-06-15T09:26:38.113Z,24.80
2023-06-15T09:29:10.046Z,24.80
2023-06-15T09:31:37.867Z,24.80
2023-06-15T09:34:06.094Z,24.90
2023-06-15T09:36:45.411Z,25.10
2023-06-15T09:39:14.152Z,25.40
2023-06-15T09:41:59.931Z,25.20
2023-06-15T09:44:28.033Z,25.10
2023-06-15T09:46:58.947Z,24.90
2023-06-15T09:49:27.674Z,24.90
2023-06-15T09:51:56.121Z,25.10
2023-06-15T09:54:25.059Z,24.50
2023-06-15T09:56:54.154Z,24.50
2023-06-15T09:59:22.171Z,24.60
2023-06-15T10:01:51.301Z,24.60
2023-06-15T10:04:25.526Z,24.80
2023-06-15T10:06:57.390Z,25.10
2023-06-15T10:09:30.819Z,25.20
2023-06-15T10:12:07.883Z,25.20
2023-06-15T10:14:46.682Z,25.30
2023-06-15T10:17:16.273Z,25.10
2023-06-15T10:19:45.182Z,25.20
2023-06-15T10:22:20.002Z,25.30
2023-06-15T10:24:47.822Z,25.50
2023-06-15T10:27:16.512Z,25.60
2023-06-15T10:29:55.828Z,25.60
2023-06-15T10:32:29.629Z,25.60
2023-06-15T10:35:06.253Z,25.60
2023-06-15T10:37:44.885Z,25.70
2023-06-15T10:40:32.105Z,26.10
2023-06-15T10:43:01.799Z,26.30
2023-06-15T10:45:34.184Z,26.40
2023-06-15T10:48:02.915Z,26.50
2023-06-15T10:50:44.348Z,26.60
2023-06-15T10:53:23.583Z,26.90
2023-06-15T10:55:55.540Z,26.60
2023-06-15T10:58:23.030Z,26.90
2023-06-15T11:01:15.182Z,26.90
2023-06-15T11:03:43.188Z,27.50
2023-06-15T11:06:17.898Z,27.60
2023-06-15T11:08:53.511Z,27.70
2023-06-15T11:11:31.504Z,27.80
2023-06-15T11:14:06.282Z,28.00
2023-06-15T11:16:34.068Z,28.00
2023-06-15T11:19:21.308Z,28.40
2023-06-15T11:21:58.473Z,28.50
2023-06-15T11:24:26.934Z,28.30
2023-06-15T11:26:55.574Z,28.70
2023-06-15T11:29:27.099Z,28.40
2023-06-15T11:31:55.105Z,28.60
2023-06-15T11:34:22.087Z,28.30
2023-06-15T11:36:51.969Z,28.90
2023-06-15T11:39:25.147Z,28.80
2023-06-15T11:41:57.524Z,27.90
2023-06-15T11:44:26.492Z,28.20
2023-06-15T11:46:55.098Z,27.50
2023-06-15T11:49:22.880Z,26.90
2023-06-15T11:51:53.029Z,27.10
2023-06-15T11:54:36.800Z,27.90
2023-06-15T11:57:08.262Z,28.80
2023-06-15T11:59:36.771Z,28.20
2023-06-15T12:02:05.160Z,28.20
2023-06-15T12:04:33.031Z,28.10
2023-06-15T12:07:06.064Z,29.20
2023-06-15T12:09:33.630Z,29.50
2023-06-15T12:12:01.925Z,29.40
2023-06-15T12:14:28.990Z,30.60
2023-06-15T12:16:58.534Z,31.00
2023-06-15T12:19:27.399Z,31.00
2023-06-15T12:21:59.356Z,30.70
2023-06-15T12:24:26.363Z,29.80
2023-06-15T12:26:57.065Z,30.10
2023-06-15T12:29:24.196Z,30.40
2023-06-15T12:31:53.389Z,31.00
2023-06-15T12:34:30.164Z,30.70
2023-06-15T12:36:59.454Z,30.80
2023-06-15T12:39:28.772Z,30.60
2023-06-15T12:42:03.475Z,30.90
2023-06-15T12:44:33.017Z,30.20
2023-06-15T12:46:59.993Z,30.50
2023-06-15T12:49:26.950Z,30.20
2023-06-15T12:51:56.117Z,30.00
2023-06-15T12:54:23.729Z,28.50
2023-06-15T12:56:50.810Z,27.80
2023-06-15T12:59:17.970Z,27.80
2023-06-15T13:01:45.004Z,27.70
2023-06-15T13:04:12.426Z,27.50
2023-06-15T13:06:39.873Z,28.40
2023-06-15T13:09:06.857Z,29.30
2023-06-15T13:11:33.829Z,28.50
2023-06-15T13:14:00.846Z,29.50
2023-06-15T13:16:27.914Z,30.40
2023-06-15T13:18:55.107Z,30.40
2023-06-15T13:21:23.268Z,30.10
2023-06-15T13:23:50.569Z,30.50
2023-06-15T13:26:17.898Z,30.00
2023-06-15T13:28:44.834Z,30.10
2023-06-15T13:31:11.705Z,30.20
2023-06-15T13:33:39.961Z,30.40
2023-06-15T13:36:07.037Z,30.70
2023-06-15T13:38:33.993Z,30.40
2023-06-15T13:41:01.130Z,30.90
2023-06-15T13:43:28.177Z,30.90
2023-06-15T13:48:23.427Z,29.60
2023-06-15T13:50:50.627Z,29.00
2023-06-15T13:53:20.114Z,28.70
2023-06-15T13:55:47.984Z,28.80
2023-06-15T13:58:15.042Z,28.30
2023-06-15T14:00:42.152Z,27.80
2023-06-15T14:03:09.253Z,27.70
2023-06-15T14:05:36.403Z,28.10
2023-06-15T14:08:03.682Z,29.30
2023-06-15T14:10:30.650Z,29.10
2023-06-15T14:12:57.952Z,30.10
2023-06-15T14:15:25.080Z,30.30
2023-06-15T14:20:20.316Z,29.90
2023-06-15T14:22:49.752Z,29.50
2023-06-15T14:25:17.566Z,29.50
2023-06-15T14:27:48.241Z,29.30
2023-06-15T14:30:16.683Z,28.20
2023-06-15T14:32:43.976Z,28.20
2023-06-15T14:35:11.226Z,27.70
2023-06-15T14:37:38.149Z,27.20
2023-06-15T14:40:05.837Z,27.90
2023-06-15T14:42:32.957Z,27.90
2023-06-15T14:45:00.308Z,28.00
2023-06-15T14:47:27.285Z,27.40
2023-06-15T14:49:54.192Z,27.50
2023-06-15T14:52:21.403Z,27.50
2023-06-15T14:54:48.943Z,27.40
2023-06-15T14:57:15.865Z,27.30
2023-06-15T14:59:42.796Z,27.80
2023-06-15T15:02:09.797Z,27.90
2023-06-15T15:04:36.871Z,28.60
2023-06-15T15:07:04.146Z,28.20
2023-06-15T15:09:31.049Z,27.80
2023-06-15T15:11:57.978Z,28.30
2023-06-15T15:14:25.303Z,28.80
2023-06-15T15:16:53.029Z,28.50
2023-06-15T15:19:21.917Z,28.10
2023-06-15T15:21:49.837Z,28.00
2023-06-15T15:24:18.640Z,28.30
2023-06-15T15:26:45.753Z,28.30
2023-06-15T15:29:12.673Z,28.50
2023-06-15T15:31:39.608Z,28.50
2023-06-15T15:34:06.717Z,28.70
2023-06-15T15:36:33.659Z,28.60
2023-06-15T15:39:02.079Z,28.80
2023-06-15T15:41:29.025Z,28.60
2023-06-15T15:43:56.229Z,28.20
2023-06-15T15:46:23.387Z,27.90
2023-06-15T15:48:50.699Z,28.40
2023-06-15T15:51:17.947Z,28.20
2023-06-15T15:53:44.877Z,28.70
2023-06-15T15:56:11.846Z,28.90
2023-06-15T15:58:38.767Z,29.10
2023-06-15T16:01:05.630Z,28.90
2023-06-15T16:03:32.539Z,28.80
2023-06-15T16:05:59.611Z,28.20
2023-06-15T16:08:26.506Z,28.40
2023-06-15T16:10:53.381Z,28.20
2023-06-15T16:13:20.341Z,27.90
2023-06-15T16:15:55.698Z,27.70
2023-06-15T16:18:34.505Z,27.70
2023-06-15T16:21:01.689Z,27.90
2023-06-15T16:23:28.638Z,28.20
2023-06-15T16:25:56.116Z,28.00
2023-06-15T16:28:22.987Z,27.90
2023-06-15T16:30:50.190Z,28.00
2023-06-15T16:33:17.261Z,28.10
2023-06-15T16:35:44.219Z,28.70
2023-06-15T16:38:11.208Z,28.70
2023-06-15T16:40:39.367Z,28.80
2023-06-15T16:43:09.578Z,28.90
2023-06-15T16:45:36.545Z,28.60
2023-06-15T16:48:03.519Z,28.20
2023-06-15T16:50:30.387Z,28.60
2023-06-15T16:52:57.198Z,28.50
2023-06-15T16:55:24.102Z,27.60
2023-06-15T16:57:51.721Z,28.10
2023-06-15T17:00:22.006Z,27.90
2023-06-15T17:02:51.910Z,28.00
2023-06-15T17:05:22.211Z,28.00
2023-06-15T17:07:49.385Z,27.90
2023-06-15T17:10:16.504Z,28.20
2023-06-15T17:12:43.656Z,28.40
2023-06-15T17:15:10.924Z,28.30
2023-06-15T17:17:37.826Z,28.40
2023-06-15T17:20:05.119Z,28.20
2023-06-15T17:22:32.039Z,28.10
2023-06-15T17:25:00.591Z,28.20
2023-06-15T17:27:27.751Z,28.20
2023-06-15T17:29:54.752Z,28.10
2023-06-15T17:32:21.669Z,28.30
2023-06-15T17:34:51.894Z,28.10
2023-06-15T17:37:22.064Z,28.20
2023-06-15T17:39:49.403Z,28.20
2023-06-15T17:42:16.332Z,28.10
2023-06-15T17:44:43.345Z,28.10
2023-06-15T17:47:10.180Z,27.90
2023-06-15T17:49:37.021Z,28.40
2023-06-15T17:52:05.002Z,28.00
2023-06-15T17:54:31.890Z,28.00
2023-06-15T17:56:58.753Z,28.30
2023-06-15T17:59:25.608Z,28.10
2023-06-15T18:01:52.516Z,27.90
2023-06-15T18:04:19.449Z,27.80
2023-06-15T18:06:46.388Z,27.60
2023-06-15T18:09:14.408Z,27.50
2023-06-15T18:11:41.913Z,27.60
2023-06-15T18:14:11.013Z,27.40
2023-06-15T18:16:38.713Z,27.70
2023-06-15T18:19:05.794Z,27.70
2023-06-15T18:21:32.662Z,27.50
2023-06-15T18:23:59.647Z,27.10
2023-06-15T18:26:27.927Z,27.10
2023-06-15T18:28:56.316Z,27.20
2023-06-15T18:31:23.338Z,27.20
2023-06-15T18:33:50.470Z,27.00
2023-06-15T18:36:21.657Z,26.90
2023-06-15T18:38:48.992Z,26.80
2023-06-15T18:41:16.049Z,26.90
2023-06-15T18:43:42.881Z,26.80
2023-06-15T18:46:09.804Z,26.80
2023-06-15T18:48:37.415Z,26.60
2023-06-15T18:51:04.874Z,26.60
2023-06-15T18:53:31.745Z,26.40
2023-06-15T18:55:59.562Z,26.20
2023-06-15T18:58:27.010Z,26.20
2023-06-15T19:00:53.974Z,26.20
2023-06-15T19:03:21.188Z,26.10
2023-06-15T19:05:51.300Z,25.90
2023-06-15T19:08:19.839Z,26.00
2023-06-15T19:10:46.833Z,25.90
2023-06-15T19:13:13.786Z,25.80
2023-06-15T19:15:40.726Z,25.70
2023-06-15T19:18:07.994Z,25.70
2023-06-15T19:20:34.937Z,25.70
2023-06-15T19:23:01.837Z,25.50
2023-06-15T19:25:28.815Z,25.60
2023-06-15T19:27:55.696Z,25.60
2023-06-15T19:30:22.610Z,25.50
2023-06-15T19:32:50.412Z,25.40
2023-06-15T19:35:18.167Z,25.30
2023-06-15T19:37:45.390Z,25.20
2023-06-15T19:40:12.817Z,25.20
2023-06-15T19:42:41.565Z,24.90
2023-06-15T19:45:09.613Z,24.90
2023-06-15T19:47:41.267Z,24.80
2023-06-15T19:50:09.606Z,24.70
2023-06-15T19:52:36.470Z,24.80
2023-06-15T19:55:03.662Z,24.80
2023-06-15T19:57:30.587Z,24.90
2023-06-15T19:59:57.677Z,24.80
2023-06-15T20:02:24.795Z,24.70
2023-06-15T20:04:51.970Z,24.70
2023-06-15T20:07:19.287Z,24.60
2023-06-15T20:09:46.476Z,24.50
2023-06-15T20:12:13.483Z,24.40
2023-06-15T20:14:40.608Z,24.40
2023-06-15T20:17:07.590Z,24.30
2023-06-15T20:19:34.443Z,24.30
2023-06-15T20:22:03.647Z,24.20
2023-06-15T20:24:30.626Z,24.10
2023-06-15T20:26:57.686Z,24.00
2023-06-15T20:29:24.583Z,24.00
2023-06-15T20:31:51.508Z,23.90
2023-06-15T20:34:21.564Z,23.90
2023-06-15T20:36:48.930Z,23.70
2023-06-15T20:39:16.344Z,23.70
2023-06-15T20:41:43.265Z,23.60
2023-06-15T20:44:10.421Z,23.50
2023-06-15T20:46:37.368Z,23.50
2023-06-15T20:49:04.253Z,23.50
2023-06-15T20:51:31.280Z,23.40
2023-06-15T20:53:58.140Z,23.40
2023-06-15T20:56:25.046Z,23.40
2023-06-15T20:58:51.916Z,23.10
2023-06-15T21:01:19.057Z,23.10
2023-06-15T21:03:45.955Z,23.10
2023-06-15T21:06:13.392Z,23.10
2023-06-15T21:08:41.455Z,23.10
2023-06-15T21:11:08.389Z,23.10
2023-06-15T21:13:36.443Z,23.00
2023-06-15T21:16:06.114Z,22.80
2023-06-15T21:18:35.384Z,22.80
2023-06-15T21:21:02.483Z,22.70
2023-06-15T22:15:16.851Z,22.50
2023-06-15T22:17:44.626Z,21.90
2023-06-15T22:20:13.006Z,21.90
2023-06-15T22:22:40.375Z,21.70
2023-06-15T22:25:07.904Z,21.80
2023-06-15T22:27:35.630Z,21.60
2023-06-15T22:30:02.944Z,21.70
2023-06-15T22:32:30.254Z,21.80
2023-06-15T22:34:57.272Z,21.70
2023-06-15T22:37:24.831Z,21.60
2023-06-15T22:39:51.800Z,21.50
2023-06-15T22:42:19.095Z,21.50
2023-06-15T22:44:46.217Z,21.50
2023-06-15T22:47:13.800Z,21.40
2023-06-15T22:49:43.593Z,21.50
2023-06-15T22:52:11.816Z,21.50
2023-06-15T22:54:39.925Z,21.40
2023-06-15T22:57:07.948Z,21.30
2023-06-15T22:59:34.905Z,21.20
2023-06-15T23:02:01.762Z,21.30
2023-06-15T23:04:28.791Z,21.30
2023-06-15T23:06:57.244Z,21.30
2023-06-15T23:09:24.141Z,21.20
2023-06-15T23:11:52.151Z,21.20
2023-06-15T23:14:22.892Z,21.20
2023-06-15T23:16:50.685Z,21.10
2023-06-15T23:19:20.906Z,21.10
2023-06-15T23:21:50.387Z,21.10
2023-06-15T23:59:07.744Z,21.00
